Time;durP1;ratioP1;P1;durP2;ratioP2;P2;SDS_P1;SDS_P2;PMS_P1;PMS_P2;Temp;Humidity;BMP_temperature;BMP_pressure;BME280_temperature;BME280_humidity;BME280_pressure;Samples;Min_cycle;Max_cycle;Signal;HPM_P1;HPM_P2
2022/03/30 00:01:10;;;;;;;33.88;16.90;;;11.10;99.90;;;;;;6729683;88;20234;-78
2022/03/30 00:11:11;;;;;;;37.08;18.37;;;10.90;99.90;;;;;;6724569;88;20624;-78
2022/03/30 00:21:13;;;;;;;35.70;17.77;;;10.90;99.90;;;;;;6729848;88;20216;-78
2022/03/30 00:31:15;;;;;;;36.90;18.45;;;10.80;99.90;;;;;;6722353;88;20193;-78
2022/03/30 00:41:16;;;;;;;36.78;17.50;;;10.60;99.90;;;;;;6721292;88;20189;-78
2022/03/30 00:51:16;;;;;;;32.72;18.17;;;10.70;99.90;;;;;;6706930;88;20232;-79
2022/03/30 01:01:17;;;;;;;36.33;17.80;;;10.70;99.90;;;;;;6707269;88;20190;-78
2022/03/30 01:11:18;;;;;;;35.73;18.37;;;10.60;99.90;;;;;;6707290;88;20284;-78
2022/03/30 01:21:18;;;;;;;40.90;18.87;;;10.50;99.90;;;;;;6706426;88;20519;-78
2022/03/30 01:41:38;;;;;;;39.22;19.80;;;10.40;99.90;;;;;;6722755;88;20170;-80
2022/03/30 01:51:38;;;;;;;39.58;19.52;;;10.20;99.90;;;;;;6728561;88;20230;-78
2022/03/30 02:01:40;;;;;;;41.33;20.55;;;10.00;99.90;;;;;;6716685;88;20319;-77
2022/03/30 02:11:41;;;;;;;40.50;20.17;;;9.80;99.90;;;;;;6712568;88;20197;-78
2022/03/30 02:21:42;;;;;;;41.13;18.93;;;9.70;99.90;;;;;;6709277;88;20214;-78
2022/03/30 02:31:44;;;;;;;40.72;19.73;;;9.60;99.90;;;;;;6711038;88;20551;-77
2022/03/30 02:41:46;;;;;;;40.38;20.10;;;9.50;99.90;;;;;;6717441;88;20930;-77
2022/03/30 02:51:47;;;;;;;37.42;19.10;;;9.40;99.90;;;;;;6721792;88;20773;-77
2022/03/30 03:01:47;;;;;;;38.95;19.05;;;9.40;99.90;;;;;;6718699;88;20244;-78
2022/03/30 03:11:48;;;;;;;39.72;19.62;;;9.20;99.90;;;;;;6655364;88;20208;-77
2022/03/30 03:21:48;;;;;;;39.27;19.13;;;9.20;99.90;;;;;;6636433;89;20192;-77
2022/03/30 03:31:49;;;;;;;42.22;19.17;;;9.20;99.90;;;;;;6640692;89;21055;-79
2022/03/30 03:41:49;;;;;;;40.17;19.27;;;9.10;99.90;;;;;;6669653;88;20189;-79
2022/03/30 03:51:50;;;;;;;43.45;19.87;;;9.20;99.90;;;;;;6722920;88;20720;-79
2022/03/30 04:01:51;;;;;;;40.40;19.40;;;9.20;99.90;;;;;;6726332;88;20197;-78
2022/03/30 04:11:52;;;;;;;43.43;19.93;;;9.10;99.90;;;;;;6726623;88;20290;-79
2022/03/30 04:21:53;;;;;;;39.13;18.92;;;9.10;99.90;;;;;;6727690;88;21486;-77
2022/03/30 04:31:54;;;;;;;39.30;18.90;;;8.80;99.90;;;;;;6726679;88;20181;-79
2022/03/30 04:41:54;;;;;;;42.17;19.70;;;8.80;99.90;;;;;;6727830;88;20263;-79
2022/03/30 04:51:55;;;;;;;41.97;19.75;;;8.80;99.90;;;;;;6721118;88;20218;-79
2022/03/30 05:01:55;;;;;;;46.13;19.83;;;8.80;99.90;;;;;;6728409;88;20240;-79
2022/03/30 05:11:56;;;;;;;40.85;19.42;;;8.80;99.90;;;;;;6721674;88;20246;-79
2022/03/30 05:21:56;;;;;;;40.20;19.10;;;8.70;99.90;;;;;;6710079;88;20208;-80
2022/03/30 05:31:57;;;;;;;40.60;19.50;;;8.60;99.90;;;;;;6711414;88;20205;-79
2022/03/30 05:41:58;;;;;;;43.75;18.65;;;8.60;99.90;;;;;;6719320;88;20209;-79
2022/03/30 05:51:58;;;;;;;38.30;18.48;;;8.60;99.90;;;;;;6720891;88;20208;-79
2022/03/30 06:01:59;;;;;;;40.08;19.58;;;8.70;99.90;;;;;;6696418;88;20272;-79
2022/03/30 06:12:01;;;;;;;42.03;19.92;;;8.80;99.90;;;;;;6719170;88;20276;-81
2022/03/30 06:22:05;;;;;;;40.22;18.45;;;8.70;99.90;;;;;;6718845;88;20375;-79
2022/03/30 06:32:07;;;;;;;39.45;19.05;;;8.70;99.90;;;;;;6725050;88;20181;-78
2022/03/30 06:42:10;;;;;;;38.70;18.87;;;8.70;99.90;;;;;;6710207;88;20307;-80
2022/03/30 06:52:10;;;;;;;42.25;19.58;;;8.60;99.90;;;;;;6723136;88;20634;-79
2022/03/30 07:02:11;;;;;;;44.50;20.60;;;8.80;99.90;;;;;;6727849;88;20210;-79
2022/03/30 07:12:12;;;;;;;40.97;19.67;;;8.90;99.90;;;;;;6730496;88;20231;-80
2022/03/30 07:22:13;;;;;;;46.85;21.00;;;9.20;99.90;;;;;;6730444;88;20200;-79
2022/03/30 07:32:14;;;;;;;39.33;19.05;;;9.20;99.90;;;;;;6727238;88;20268;-81
2022/03/30 07:42:14;;;;;;;40.22;19.55;;;9.40;99.90;;;;;;6733388;88;20204;-80
2022/03/30 07:52:15;;;;;;;34.25;18.25;;;9.50;99.90;;;;;;6733525;88;20264;-80
2022/03/30 08:02:18;;;;;;;35.28;17.87;;;9.80;99.90;;;;;;6736269;88;20188;-80
2022/03/30 08:12:20;;;;;;;34.10;18.12;;;10.10;99.90;;;;;;6736688;88;20193;-81
2022/03/30 08:22:28;;;;;;;35.97;17.83;;;10.40;99.90;;;;;;6735769;88;20234;-80
2022/03/30 08:32:28;;;;;;;32.33;16.45;;;10.70;99.90;;;;;;6736464;88;20185;-82
2022/03/30 08:42:29;;;;;;;34.60;16.37;;;11.20;99.90;;;;;;6718222;88;20702;-80
2022/03/30 09:02:39;;;;;;;33.13;15.27;;;12.20;99.90;;;;;;6719086;88;20601;-80
2022/03/30 09:12:40;;;;;;;27.87;15.68;;;12.80;99.90;;;;;;6771743;88;20678;-80
2022/03/30 09:22:43;;;;;;;27.17;14.68;;;13.30;99.90;;;;;;6769806;88;20578;-81
2022/03/30 09:32:46;;;;;;;25.95;15.40;;;13.50;99.90;;;;;;6769492;88;20183;-81
2022/03/30 09:42:46;;;;;;;30.17;15.68;;;14.70;99.90;;;;;;6777516;88;20207;-81
2022/03/30 09:52:47;;;;;;;24.63;13.88;;;15.40;99.90;;;;;;6774651;87;20195;-81
2022/03/30 10:02:51;;;;;;;28.42;14.95;;;15.70;97.40;;;;;;6772449;88;20192;-81
2022/03/30 10:12:51;;;;;;;27.70;14.93;;;16.50;96.90;;;;;;6776542;88;20656;-81
2022/03/30 10:23:21;;;;;;;25.83;14.37;;;16.70;96.50;;;;;;6776292;88;20240;-81
2022/03/30 10:33:33;;;;;;;25.83;13.73;;;16.30;95.30;;;;;;6762527;88;20187;-81
2022/03/30 10:43:34;;;;;;;24.37;13.32;;;15.90;94.30;;;;;;6750321;88;20192;-81
2022/03/30 10:53:41;;;;;;;22.48;12.20;;;16.00;95.80;;;;;;6748991;88;20234;-82
2022/03/30 11:04:02;;;;;;;23.05;12.10;;;16.50;92.20;;;;;;6744707;88;20196;-81
2022/03/30 11:14:24;;;;;;;27.37;12.90;;;16.30;91.50;;;;;;6744849;88;20970;-81
2022/03/30 11:24:25;;;;;;;23.35;12.32;;;17.60;88.50;;;;;;6747511;88;20177;-81
2022/03/30 11:34:31;;;;;;;22.10;12.30;;;18.30;83.80;;;;;;6747775;88;20320;-81
2022/03/30 11:54:53;;;;;;;20.83;11.23;;;18.40;82.70;;;;;;6730692;88;20228;-81
2022/03/30 12:04:54;;;;;;;19.37;11.63;;;19.30;76.60;;;;;;6730509;88;20295;-81
2022/03/30 12:14:59;;;;;;;17.73;9.63;;;18.60;79.80;;;;;;6743134;88;20216;-81
2022/03/30 12:25:00;;;;;;;18.85;9.68;;;20.00;78.60;;;;;;6750150;88;20218;-81
2022/03/30 12:35:14;;;;;;;20.42;9.45;;;20.80;73.80;;;;;;6751154;88;20188;-81
2022/03/30 12:45:17;;;;;;;18.40;10.70;;;19.40;73.50;;;;;;6747945;88;20260;-82
2022/03/30 12:55:25;;;;;;;15.80;8.55;;;19.10;70.10;;;;;;6752445;88;20742;-81
2022/03/30 13:05:27;;;;;;;14.10;7.28;;;18.70;73.20;;;;;;6750973;88;20183;-81
2022/03/30 13:15:34;;;;;;;12.95;6.55;;;19.70;68.50;;;;;;6752594;88;20172;-82
2022/03/30 13:25:39;;;;;;;13.00;6.85;;;18.40;65.50;;;;;;6750318;88;20313;-81
2022/03/30 13:35:39;;;;;;;13.45;7.12;;;17.20;66.50;;;;;;6745455;88;20348;-82
2022/03/30 13:45:40;;;;;;;10.93;6.30;;;17.80;69.10;;;;;;6746333;88;20196;-81
2022/03/30 13:55:41;;;;;;;11.57;5.85;;;18.70;63.90;;;;;;6745561;88;20226;-81
2022/03/30 14:05:41;;;;;;;13.40;5.97;;;19.00;65.10;;;;;;6750329;88;20322;-82
2022/03/30 14:15:42;;;;;;;10.68;5.85;;;19.30;61.00;;;;;;6746343;88;20526;-81
2022/03/30 14:25:44;;;;;;;10.43;5.65;;;20.10;61.60;;;;;;6752408;88;20353;-83
2022/03/30 14:35:45;;;;;;;13.13;6.45;;;19.60;60.00;;;;;;6754208;88;20169;-81
2022/03/30 14:45:46;;;;;;;14.00;8.07;;;20.10;60.00;;;;;;6750493;88;20188;-81
2022/03/30 15:06:49;;;;;;;13.85;6.93;;;17.20;63.70;;;;;;6660002;88;20171;-80
2022/03/30 15:16:50;;;;;;;15.17;6.63;;;17.20;64.70;;;;;;6659717;88;20306;-79
2022/03/30 15:26:50;;;;;;;12.60;6.70;;;17.10;64.90;;;;;;6654664;88;20231;-79
2022/03/30 15:36:52;;;;;;;13.35;6.37;;;17.00;63.50;;;;;;6658419;89;20244;-80
2022/03/30 15:46:53;;;;;;;9.98;5.85;;;17.30;64.40;;;;;;6675704;88;20237;-82
2022/03/30 15:56:53;;;;;;;10.10;6.30;;;17.10;64.80;;;;;;6675064;88;20168;-80
2022/03/30 16:06:54;;;;;;;13.95;7.25;;;17.00;64.30;;;;;;6747795;88;20765;-80
2022/03/30 16:16:55;;;;;;;14.80;7.23;;;16.40;65.80;;;;;;6747634;88;20197;-80
2022/03/30 16:26:57;;;;;;;13.35;6.90;;;16.10;66.80;;;;;;6748640;88;20778;-80
2022/03/30 16:36:59;;;;;;;10.98;6.85;;;15.70;69.20;;;;;;6749588;88;20793;-80
2022/03/30 16:47:00;;;;;;;12.57;6.70;;;15.30;70.70;;;;;;6748443;88;20318;-81
2022/03/30 16:57:01;;;;;;;15.20;6.82;;;14.80;70.90;;;;;;6745905;88;20177;-80
2022/03/30 17:07:04;;;;;;;12.88;6.50;;;14.60;71.80;;;;;;6676316;89;20215;-81
2022/03/30 17:17:04;;;;;;;11.55;6.07;;;14.20;71.30;;;;;;6671838;88;20199;-81
2022/03/30 17:27:07;;;;;;;10.88;6.50;;;14.00;72.40;;;;;;6677030;89;20188;-81
2022/03/30 17:37:07;;;;;;;16.12;7.10;;;13.70;73.70;;;;;;6679541;89;20175;-80
2022/03/30 17:47:08;;;;;;;14.27;7.15;;;13.50;75.10;;;;;;6644321;89;20335;-80
2022/03/30 17:57:08;;;;;;;12.32;6.65;;;13.20;75.70;;;;;;6644250;89;20834;-80
2022/03/30 18:07:09;;;;;;;11.30;6.65;;;12.90;77.50;;;;;;6652411;88;20169;-80
2022/03/30 18:17:10;;;;;;;12.70;5.93;;;12.80;78.60;;;;;;6676308;88;20767;-80
2022/03/30 18:27:11;;;;;;;12.85;5.70;;;12.60;78.40;;;;;;6679945;89;20828;-81
2022/03/30 18:37:11;;;;;;;9.68;5.03;;;12.40;79.40;;;;;;6678863;89;20204;-80
2022/03/30 18:47:12;;;;;;;10.95;5.18;;;12.20;80.50;;;;;;6679290;88;20206;-81
2022/03/30 18:57:13;;;;;;;11.20;5.00;;;12.10;80.90;;;;;;6679438;89;20176;-81
2022/03/30 19:07:16;;;;;;;11.85;5.10;;;12.10;81.00;;;;;;6688166;88;20157;-80
2022/03/30 19:17:17;;;;;;;13.80;5.37;;;12.00;81.70;;;;;;6679154;88;20167;-81
2022/03/30 19:27:17;;;;;;;10.77;4.90;;;11.90;82.60;;;;;;6678876;88;20184;-79
2022/03/30 19:37:18;;;;;;;10.23;5.28;;;11.90;83.70;;;;;;6747422;88;20183;-82
2022/03/30 19:47:18;;;;;;;10.45;5.32;;;11.70;84.30;;;;;;6746635;88;20185;-80
2022/03/30 19:57:19;;;;;;;10.98;5.22;;;11.50;85.10;;;;;;6746744;88;20258;-82
2022/03/30 20:07:20;;;;;;;9.67;4.53;;;11.70;85.50;;;;;;6695305;88;20235;-82
2022/03/30 20:17:20;;;;;;;12.07;5.28;;;11.70;86.00;;;;;;6680928;88;20169;-81
2022/03/30 20:27:21;;;;;;;10.32;5.55;;;11.50;87.90;;;;;;6682454;88;20266;-82
2022/03/30 20:37:21;;;;;;;8.15;5.15;;;11.40;88.30;;;;;;6680752;88;20255;-81
2022/03/30 20:47:22;;;;;;;10.45;5.20;;;11.50;89.30;;;;;;6677095;88;20201;-81
2022/03/30 20:57:23;;;;;;;9.70;4.80;;;11.30;89.60;;;;;;6680644;88;20248;-80
2022/03/30 21:07:23;;;;;;;8.52;4.78;;;11.20;89.90;;;;;;6680653;88;20183;-81
2022/03/30 21:17:24;;;;;;;7.60;4.90;;;11.00;90.40;;;;;;6672553;88;20179;-78
2022/03/30 21:27:25;;;;;;;8.73;4.78;;;10.90;91.00;;;;;;6674158;89;20201;-79
2022/03/30 21:37:25;;;;;;;8.52;4.55;;;10.80;91.50;;;;;;6669892;88;20254;-80
2022/03/30 21:47:26;;;;;;;12.93;7.00;;;10.70;92.10;;;;;;6671347;88;20222;-81
2022/03/30 21:57:27;;;;;;;16.27;7.95;;;10.80;93.20;;;;;;6675229;89;20183;-81
2022/03/30 22:07:27;;;;;;;16.37;8.43;;;10.70;95.60;;;;;;6674404;89;20207;-81
2022/03/30 22:17:28;;;;;;;20.48;8.90;;;10.50;97.40;;;;;;6668541;89;20216;-80
2022/03/30 22:27:29;;;;;;;18.02;8.68;;;10.40;98.70;;;;;;6666299;89;20280;-81
2022/03/30 22:37:30;;;;;;;19.37;9.80;;;10.60;99.90;;;;;;6670715;89;20649;-81
2022/03/30 22:47:30;;;;;;;20.30;9.20;;;10.50;99.90;;;;;;6670449;89;20621;-81
2022/03/30 22:57:32;;;;;;;21.12;10.98;;;10.40;99.90;;;;;;6637080;89;21149;-79
2022/03/30 23:17:52;;;;;;;19.08;10.55;;;10.10;99.90;;;;;;6634745;89;20594;-80
2022/03/30 23:27:53;;;;;;;22.65;10.90;;;10.00;99.90;;;;;;6663997;89;20256;-80
2022/03/30 23:38:04;;;;;;;21.48;10.40;;;9.90;99.90;;;;;;6671176;88;20209;-81
2022/03/30 23:48:06;;;;;;;24.20;11.52;;;9.70;99.90;;;;;;6760737;88;20202;-80
2022/03/30 23:58:07;;;;;;;21.77;11.57;;;9.80;99.90;;;;;;6761874;88;20230;-80
